Time;durP1;ratioP1;P1;durP2;ratioP2;P2;SDS_P1;SDS_P2;PMS_P1;PMS_P2;Temp;Humidity;BMP_temperature;BMP_pressure;BME280_temperature;BME280_humidity;BME280_pressure;Samples;Min_cycle;Max_cycle;Signal;HPM_P1;HPM_P2
2020/12/05 00:03:16;;;;;;;57.65;23.17;;;-1.40;99.90;;;;;;8293882;28;20053;-69
2020/12/05 00:07:19;;;;;;;49.60;23.38;;;-1.60;99.90;;;;;;8294019;28;20038;-70
2020/12/05 00:11:29;;;;;;;42.03;19.55;;;-1.30;99.90;;;;;;8292730;28;20030;-70
2020/12/05 00:15:30;;;;;;;47.88;21.98;;;-1.40;99.90;;;;;;8293995;28;20140;-70
2020/12/05 00:19:31;;;;;;;48.47;22.27;;;-1.60;99.90;;;;;;8293630;28;20539;-70
2020/12/05 00:23:32;;;;;;;51.70;23.10;;;-1.80;99.90;;;;;;8293864;28;20395;-70
2020/12/05 00:27:32;;;;;;;48.05;21.10;;;-1.80;99.90;;;;;;8293458;28;20108;-70
2020/12/05 00:31:33;;;;;;;53.92;21.95;;;-1.60;99.90;;;;;;8291978;28;20426;-69
2020/12/05 00:35:33;;;;;;;52.63;23.25;;;-1.80;99.90;;;;;;8293751;28;20484;-69
2020/12/05 00:39:34;;;;;;;45.72;21.88;;;-2.00;99.90;;;;;;8292126;28;20026;-70
2020/12/05 00:43:34;;;;;;;42.08;17.33;;;-2.10;99.90;;;;;;8292221;28;20040;-70
2020/12/05 00:47:35;;;;;;;52.35;22.67;;;-2.00;99.90;;;;;;8293524;28;20080;-69
2020/12/05 00:51:35;;;;;;;52.08;21.15;;;-2.10;99.90;;;;;;8294815;28;20034;-69
2020/12/05 00:55:36;;;;;;;44.83;18.52;;;-2.20;99.90;;;;;;8298359;28;20048;-69
2020/12/05 00:59:36;;;;;;;37.35;15.20;;;-2.10;99.90;;;;;;8299069;28;20022;-69
2020/12/05 01:03:37;;;;;;;51.15;19.85;;;-2.10;99.90;;;;;;8298842;28;20080;-71
2020/12/05 01:07:37;;;;;;;54.55;22.52;;;-2.30;99.90;;;;;;8297760;28;20503;-70
2020/12/05 01:11:38;;;;;;;51.55;22.20;;;-2.10;99.90;;;;;;8297174;28;20065;-70
2020/12/05 01:15:38;;;;;;;52.47;23.15;;;-2.20;99.90;;;;;;8298603;28;20037;-68
2020/12/05 01:19:39;;;;;;;47.40;21.13;;;-2.10;99.90;;;;;;8297182;28;20574;-70
2020/12/05 01:23:40;;;;;;;46.72;20.77;;;-2.20;99.90;;;;;;8298558;28;20084;-70
2020/12/05 01:27:43;;;;;;;52.65;22.80;;;-1.90;99.90;;;;;;8298578;28;20101;-71
2020/12/05 01:31:48;;;;;;;54.08;21.55;;;-1.80;99.90;;;;;;8296320;28;20511;-70
2020/12/05 01:35:48;;;;;;;52.50;22.65;;;-1.90;99.90;;;;;;8298227;28;20394;-70
2020/12/05 01:39:49;;;;;;;47.58;22.27;;;-1.70;99.90;;;;;;8297591;28;20080;-69
2020/12/05 01:43:49;;;;;;;46.63;21.73;;;-1.70;99.90;;;;;;8297774;28;20022;-70
2020/12/05 01:47:50;;;;;;;47.53;21.00;;;-1.60;99.90;;;;;;8297821;28;20034;-70
2020/12/05 01:51:51;;;;;;;46.88;22.00;;;-1.60;99.90;;;;;;8297410;28;20395;-70
2020/12/05 01:55:52;;;;;;;52.47;20.83;;;-1.30;99.90;;;;;;8297509;28;20439;-70
2020/12/05 01:59:52;;;;;;;47.97;21.20;;;-0.90;99.90;;;;;;8297203;28;20026;-70
2020/12/05 02:03:58;;;;;;;48.90;21.75;;;-0.90;99.90;;;;;;8296505;28;20040;-70
2020/12/05 02:08:10;;;;;;;44.15;21.70;;;-0.90;99.90;;;;;;8295898;28;20054;-70
2020/12/05 02:12:25;;;;;;;44.15;21.20;;;-0.90;99.90;;;;;;8296649;28;20029;-70
2020/12/05 02:16:26;;;;;;;43.60;22.00;;;-0.90;99.90;;;;;;8296879;28;20053;-69
2020/12/05 02:20:35;;;;;;;45.10;21.27;;;-0.60;99.90;;;;;;8296588;28;20454;-70
2020/12/05 02:24:36;;;;;;;52.40;21.73;;;-0.50;99.90;;;;;;8295903;28;20539;-69
2020/12/05 02:28:37;;;;;;;35.75;15.95;;;-0.30;99.90;;;;;;8296257;28;20028;-70
2020/12/05 02:32:38;;;;;;;43.72;20.15;;;0.00;99.90;;;;;;8296123;28;20034;-70
2020/12/05 02:36:39;;;;;;;40.55;18.90;;;0.20;99.90;;;;;;8296114;28;20478;-70
2020/12/05 02:40:40;;;;;;;44.67;20.40;;;0.30;99.90;;;;;;8295706;28;20121;-70
2020/12/05 02:44:48;;;;;;;40.20;19.27;;;0.20;99.90;;;;;;8295805;28;20022;-70
2020/12/05 02:48:49;;;;;;;37.47;17.63;;;0.40;99.90;;;;;;8294462;28;20033;-69
2020/12/05 02:52:49;;;;;;;38.17;20.05;;;0.50;99.90;;;;;;8294345;28;20032;-70
2020/12/05 02:56:50;;;;;;;39.63;19.70;;;0.40;99.90;;;;;;8295541;28;20026;-70
2020/12/05 03:00:51;;;;;;;38.90;18.95;;;0.40;99.90;;;;;;8294082;28;20022;-70
2020/12/05 03:04:51;;;;;;;36.25;19.95;;;0.40;99.90;;;;;;8295088;28;20022;-70
2020/12/05 03:08:52;;;;;;;36.40;17.92;;;0.50;99.90;;;;;;8294987;28;20338;-70
2020/12/05 03:12:52;;;;;;;31.35;16.25;;;0.70;99.90;;;;;;8294552;28;20034;-69
2020/12/05 03:16:53;;;;;;;32.72;16.58;;;0.80;99.90;;;;;;8294125;28;20037;-69
2020/12/05 03:20:54;;;;;;;36.55;18.02;;;0.70;99.90;;;;;;8294946;28;20080;-69
2020/12/05 03:24:54;;;;;;;29.75;15.77;;;0.60;99.90;;;;;;8294265;28;20080;-69
2020/12/05 03:28:56;;;;;;;35.90;19.20;;;0.70;99.90;;;;;;8294386;28;20028;-70
2020/12/05 03:32:56;;;;;;;27.67;14.27;;;0.70;99.90;;;;;;8293119;28;20487;-70
2020/12/05 03:36:57;;;;;;;21.27;11.95;;;0.90;99.90;;;;;;8294869;28;20033;-69
2020/12/05 03:40:57;;;;;;;33.40;18.92;;;0.90;99.90;;;;;;8294268;28;20045;-70
2020/12/05 03:44:58;;;;;;;36.90;18.73;;;1.00;99.90;;;;;;8294163;28;20495;-69
2020/12/05 03:48:59;;;;;;;29.92;15.93;;;1.00;99.90;;;;;;8294170;28;20026;-69
2020/12/05 03:53:00;;;;;;;32.58;17.98;;;1.10;99.90;;;;;;8292829;28;20021;-70
2020/12/05 03:57:00;;;;;;;32.13;17.20;;;1.00;99.90;;;;;;8292807;28;20498;-70
2020/12/05 04:01:01;;;;;;;30.83;16.23;;;1.10;99.90;;;;;;8293622;28;20037;-69
2020/12/05 04:05:01;;;;;;;25.13;13.10;;;1.10;99.90;;;;;;8293975;28;20030;-70
2020/12/05 04:09:03;;;;;;;26.05;15.18;;;1.10;99.90;;;;;;8293886;28;20037;-69
2020/12/05 04:13:03;;;;;;;25.38;15.02;;;1.20;99.90;;;;;;8292665;28;20030;-69
2020/12/05 04:17:06;;;;;;;24.83;14.13;;;1.10;99.90;;;;;;8292342;28;20033;-69
2020/12/05 04:21:06;;;;;;;22.48;12.57;;;1.00;99.90;;;;;;8292289;28;20053;-70
2020/12/05 04:25:07;;;;;;;19.75;11.48;;;1.10;99.90;;;;;;8293385;28;20045;-69
2020/12/05 04:29:08;;;;;;;14.13;8.65;;;1.30;99.90;;;;;;8297861;28;20030;-69
2020/12/05 04:33:08;;;;;;;15.95;9.73;;;1.50;99.90;;;;;;8297053;28;20033;-70
2020/12/05 04:37:09;;;;;;;15.43;9.02;;;1.60;99.90;;;;;;8298552;28;20053;-70
2020/12/05 04:41:09;;;;;;;11.75;8.07;;;1.60;99.90;;;;;;8299551;28;20049;-70
2020/12/05 04:45:10;;;;;;;10.10;6.93;;;1.60;99.90;;;;;;8299696;28;20034;-68
2020/12/05 04:49:10;;;;;;;10.65;6.72;;;1.70;99.90;;;;;;8298087;28;20037;-69
2020/12/05 04:53:20;;;;;;;8.80;5.60;;;1.90;99.90;;;;;;8314376;28;20108;-69
2020/12/05 04:57:27;;;;;;;7.85;4.80;;;1.80;99.90;;;;;;8299034;28;20026;-69
2020/12/05 05:01:32;;;;;;;5.93;3.78;;;1.80;99.90;;;;;;8298823;28;20029;-69
2020/12/05 05:05:32;;;;;;;7.68;5.47;;;1.70;99.90;;;;;;8281476;28;20105;-69
2020/12/05 05:09:33;;;;;;;7.45;5.15;;;1.80;99.90;;;;;;8283452;28;20030;-69
2020/12/05 05:13:51;;;;;;;7.35;5.03;;;1.80;99.90;;;;;;8280049;28;20030;-69
2020/12/05 05:17:52;;;;;;;7.57;5.20;;;1.70;99.90;;;;;;8295225;28;20022;-70
2020/12/05 05:21:53;;;;;;;8.45;6.13;;;1.80;99.90;;;;;;8291204;28;20391;-69
2020/12/05 05:25:58;;;;;;;6.90;4.40;;;1.80;99.90;;;;;;8279553;28;20445;-69
2020/12/05 05:30:17;;;;;;;6.68;4.78;;;1.80;99.90;;;;;;8287076;28;20026;-69
2020/12/05 05:34:22;;;;;;;9.85;6.43;;;1.90;99.90;;;;;;8291776;28;20575;-69
2020/12/05 05:38:23;;;;;;;8.98;6.70;;;1.90;99.90;;;;;;8294937;28;20018;-71
2020/12/05 05:42:27;;;;;;;11.50;7.03;;;1.90;99.90;;;;;;8269203;28;20049;-69
2020/12/05 05:46:30;;;;;;;9.82;5.45;;;1.90;99.90;;;;;;8295659;28;20026;-70
2020/12/05 05:50:33;;;;;;;9.55;6.43;;;2.10;99.90;;;;;;8296434;28;20130;-69
2020/12/05 05:54:36;;;;;;;11.88;7.97;;;2.10;99.90;;;;;;8296182;28;20021;-69
2020/12/05 05:58:37;;;;;;;12.75;7.90;;;2.10;99.90;;;;;;8294386;28;20022;-69
2020/12/05 06:02:40;;;;;;;12.55;8.00;;;2.10;99.90;;;;;;8284680;28;20276;-69
2020/12/05 06:06:41;;;;;;;11.27;7.43;;;2.10;99.90;;;;;;8278514;28;20033;-69
2020/12/05 06:10:45;;;;;;;14.57;8.30;;;2.10;99.90;;;;;;8284430;28;20583;-70
2020/12/05 06:14:48;;;;;;;13.48;7.82;;;2.00;99.90;;;;;;8285742;28;20092;-69
2020/12/05 06:18:52;;;;;;;18.02;10.38;;;2.00;99.90;;;;;;8283101;28;20030;-70
2020/12/05 06:23:00;;;;;;;16.88;10.63;;;1.90;99.90;;;;;;8286921;28;20030;-68
2020/12/05 06:27:03;;;;;;;16.45;9.57;;;2.00;99.90;;;;;;8294436;28;20030;-69
2020/12/05 06:31:04;;;;;;;18.25;10.75;;;1.90;99.90;;;;;;8288930;28;20125;-69
2020/12/05 06:35:24;;;;;;;18.13;10.77;;;2.00;99.90;;;;;;8295782;28;20018;-69
2020/12/05 06:39:25;;;;;;;16.63;9.43;;;2.10;99.90;;;;;;8295999;28;20061;-70
2020/12/05 06:43:26;;;;;;;18.45;10.88;;;2.10;99.90;;;;;;8295863;28;20022;-69
2020/12/05 06:47:26;;;;;;;19.60;11.57;;;2.10;99.90;;;;;;8271907;28;20034;-70
2020/12/05 06:56:24;;;;;;;18.00;10.85;;;2.10;99.90;;;;;;8281631;28;20510;-69
2020/12/05 07:00:25;;;;;;;20.58;12.32;;;2.10;99.90;;;;;;8293152;28;20049;-69
2020/12/05 07:09:43;;;;;;;22.50;12.82;;;2.00;99.90;;;;;;8285175;28;20029;-69
2020/12/05 07:13:45;;;;;;;20.38;12.05;;;2.10;99.90;;;;;;8298435;28;20532;-69
2020/12/05 07:17:46;;;;;;;22.00;12.20;;;2.20;99.90;;;;;;8294706;28;20025;-68
2020/12/05 07:21:46;;;;;;;20.20;11.85;;;2.10;99.90;;;;;;8275940;28;20411;-69
2020/12/05 07:25:47;;;;;;;20.73;11.95;;;1.90;99.90;;;;;;8292048;28;20503;-69
2020/12/05 07:29:53;;;;;;;25.13;12.75;;;2.10;99.90;;;;;;8289415;28;20038;-68
2020/12/05 07:33:54;;;;;;;23.50;13.18;;;2.60;99.90;;;;;;8275267;28;20026;-69
2020/12/05 07:37:55;;;;;;;21.55;13.57;;;4.10;99.90;;;;;;8292072;28;20033;-69
2020/12/05 07:41:55;;;;;;;21.02;13.35;;;4.00;99.90;;;;;;8293862;28;20062;-70
2020/12/05 07:46:05;;;;;;;19.65;12.43;;;3.40;99.90;;;;;;8291284;28;20197;-71
2020/12/05 07:50:10;;;;;;;21.58;13.45;;;3.50;99.90;;;;;;8276070;28;20033;-69
2020/12/05 07:54:10;;;;;;;18.02;11.48;;;3.30;99.90;;;;;;8293125;28;20053;-73
2020/12/05 07:58:11;;;;;;;20.27;13.00;;;3.10;99.90;;;;;;8286715;28;20022;-72
2020/12/05 08:02:29;;;;;;;19.73;12.45;;;3.00;99.90;;;;;;8293560;28;20113;-66
2020/12/05 08:06:52;;;;;;;21.58;12.88;;;2.80;99.90;;;;;;8291545;28;20091;-66
2020/12/05 08:11:00;;;;;;;21.63;12.30;;;2.80;99.90;;;;;;8285767;28;20038;-66
2020/12/05 08:15:00;;;;;;;18.00;11.27;;;2.70;99.90;;;;;;8274789;28;20029;-67
2020/12/05 08:19:02;;;;;;;17.65;11.75;;;2.70;99.90;;;;;;8299712;28;20026;-67
2020/12/05 08:23:02;;;;;;;17.73;11.38;;;2.70;99.90;;;;;;8296354;28;20034;-67
2020/12/05 08:27:03;;;;;;;18.98;11.82;;;2.70;99.90;;;;;;8284483;28;20033;-67
2020/12/05 08:31:06;;;;;;;16.05;10.15;;;2.80;99.90;;;;;;8298383;28;20096;-68
2020/12/05 08:35:09;;;;;;;15.25;9.43;;;2.90;99.90;;;;;;8298504;28;20018;-70
2020/12/05 08:39:13;;;;;;;17.00;10.75;;;3.00;99.90;;;;;;8293173;28;20033;-69
2020/12/05 08:43:13;;;;;;;19.70;11.68;;;3.00;99.90;;;;;;8277148;28;20030;-69
2020/12/05 08:47:17;;;;;;;17.17;10.68;;;2.90;99.90;;;;;;8290840;28;20057;-69
2020/12/05 08:51:27;;;;;;;17.45;10.85;;;3.00;99.90;;;;;;8288010;28;20052;-70
2020/12/05 08:55:29;;;;;;;17.98;11.27;;;3.00;99.90;;;;;;8294305;28;20116;-70
2020/12/05 08:59:30;;;;;;;18.67;12.30;;;3.00;99.90;;;;;;8294640;28;20037;-73
2020/12/05 09:03:36;;;;;;;19.92;11.88;;;3.00;99.90;;;;;;8294072;28;20041;-71
2020/12/05 09:07:37;;;;;;;17.38;11.30;;;3.10;99.90;;;;;;8317984;28;20033;-67
2020/12/05 09:11:37;;;;;;;19.92;12.00;;;3.10;99.90;;;;;;8330342;28;20112;-71
2020/12/05 09:15:54;;;;;;;17.98;11.50;;;3.30;99.90;;;;;;8312335;28;20030;-74
2020/12/05 09:20:19;;;;;;;18.58;11.30;;;3.40;99.90;;;;;;8280412;28;20113;-69
2020/12/05 09:24:20;;;;;;;20.23;12.32;;;3.30;99.90;;;;;;8285321;28;20053;-71
2020/12/05 09:28:20;;;;;;;19.70;11.95;;;3.40;99.90;;;;;;8298155;28;20033;-73
2020/12/05 09:32:35;;;;;;;15.63;9.85;;;3.30;99.90;;;;;;8299745;28;20572;-72
2020/12/05 09:36:36;;;;;;;67.38;52.83;;;3.30;99.90;;;;;;8292829;28;20030;-72
2020/12/05 09:40:36;;;;;;;22.33;13.23;;;3.20;99.90;;;;;;8264990;28;20018;-73
2020/12/05 09:44:38;;;;;;;16.08;9.82;;;3.20;99.90;;;;;;8281610;28;20065;-73
2020/12/05 09:48:39;;;;;;;20.88;11.75;;;3.30;99.90;;;;;;8287537;28;20101;-73
2020/12/05 09:52:40;;;;;;;20.88;12.77;;;3.30;99.90;;;;;;8267356;28;20037;-74
2020/12/05 09:56:41;;;;;;;16.17;10.55;;;3.50;99.90;;;;;;8270713;28;20065;-72
2020/12/05 10:00:41;;;;;;;17.27;9.50;;;3.70;99.90;;;;;;8272799;28;20030;-72
2020/12/05 10:04:42;;;;;;;19.55;11.00;;;3.90;99.90;;;;;;8273496;28;20451;-71
2020/12/05 10:08:43;;;;;;;16.23;10.25;;;3.80;99.90;;;;;;8264468;28;20058;-71
2020/12/05 10:12:46;;;;;;;14.45;9.75;;;3.90;99.90;;;;;;8264546;28;20038;-71
2020/12/05 10:16:47;;;;;;;24.48;15.18;;;3.90;99.90;;;;;;8287225;28;20481;-71
2020/12/05 10:20:47;;;;;;;21.10;14.07;;;3.70;99.90;;;;;;8287738;28;20034;-71
2020/12/05 10:24:49;;;;;;;21.33;13.75;;;3.60;99.90;;;;;;8266030;28;20108;-71
2020/12/05 10:28:49;;;;;;;18.50;11.80;;;3.90;99.90;;;;;;8261498;28;20034;-71
2020/12/05 10:32:50;;;;;;;18.67;11.52;;;3.80;99.90;;;;;;8262685;28;20022;-71
2020/12/05 10:36:53;;;;;;;38.83;20.27;;;3.80;99.90;;;;;;8280821;28;20033;-72
2020/12/05 10:40:57;;;;;;;19.25;11.95;;;3.70;99.90;;;;;;8277721;28;20040;-71
2020/12/05 10:44:57;;;;;;;19.35;10.80;;;3.60;99.90;;;;;;8291194;28;20511;-71
2020/12/05 10:48:58;;;;;;;18.73;10.25;;;3.60;99.90;;;;;;8274644;28;20088;-71
2020/12/05 10:52:59;;;;;;;17.48;10.65;;;3.60;99.90;;;;;;8276555;28;20493;-71
2020/12/05 10:56:59;;;;;;;18.85;11.25;;;3.30;99.90;;;;;;8276993;28;20038;-71
2020/12/05 11:01:00;;;;;;;19.13;11.38;;;3.40;99.90;;;;;;8275655;28;20026;-72
2020/12/05 11:05:00;;;;;;;20.35;11.88;;;3.50;99.90;;;;;;8292587;28;20053;-71
2020/12/05 11:09:01;;;;;;;20.30;13.82;;;3.40;99.90;;;;;;8295038;28;20030;-71
2020/12/05 11:13:02;;;;;;;19.95;12.73;;;3.50;99.90;;;;;;8293397;28;20037;-71
2020/12/05 11:17:04;;;;;;;20.15;12.50;;;3.70;99.90;;;;;;8293263;28;20525;-71
2020/12/05 11:21:05;;;;;;;18.75;11.80;;;3.80;99.90;;;;;;8291259;28;20030;-72
2020/12/05 11:25:05;;;;;;;18.38;11.68;;;3.70;99.90;;;;;;8282977;28;20024;-72
2020/12/05 11:29:06;;;;;;;18.45;10.75;;;3.90;99.90;;;;;;8290992;28;20033;-75
2020/12/05 11:33:07;;;;;;;16.88;10.52;;;3.90;99.90;;;;;;8293674;28;20080;-72
2020/12/05 11:37:07;;;;;;;15.73;10.48;;;4.00;99.90;;;;;;8289695;28;20284;-72
2020/12/05 11:41:08;;;;;;;15.82;10.40;;;4.30;99.90;;;;;;8278731;28;20091;-72
2020/12/05 11:45:08;;;;;;;14.48;9.73;;;4.40;99.90;;;;;;8285213;28;20573;-75
2020/12/05 11:49:09;;;;;;;14.00;9.38;;;4.50;99.90;;;;;;8285783;28;20364;-76
2020/12/05 11:53:10;;;;;;;13.70;9.13;;;4.60;99.90;;;;;;8264261;28;20496;-76
2020/12/05 11:57:10;;;;;;;14.98;10.02;;;4.60;99.90;;;;;;8290545;28;20026;-75
2020/12/05 12:01:11;;;;;;;33.67;17.23;;;4.60;99.90;;;;;;8289664;28;20398;-75
2020/12/05 12:05:12;;;;;;;23.30;13.02;;;4.60;99.90;;;;;;8277527;28;20014;-76
2020/12/05 12:09:12;;;;;;;33.17;16.25;;;4.40;99.90;;;;;;8274704;28;20025;-75
2020/12/05 12:13:13;;;;;;;20.38;11.57;;;4.30;99.90;;;;;;8277876;28;20510;-74
2020/12/05 12:17:13;;;;;;;15.55;10.60;;;4.40;99.90;;;;;;8287101;28;20482;-76
2020/12/05 12:21:21;;;;;;;14.10;9.60;;;4.40;99.90;;;;;;8280018;28;20084;-76
2020/12/05 12:25:22;;;;;;;14.38;9.32;;;4.10;99.90;;;;;;8288609;28;20030;-74
2020/12/05 12:29:23;;;;;;;19.20;9.88;;;4.00;99.90;;;;;;8291080;28;20553;-75
2020/12/05 12:33:23;;;;;;;62.80;28.25;;;4.10;99.90;;;;;;8288682;28;20423;-75
2020/12/05 12:37:24;;;;;;;19.02;11.70;;;4.10;99.90;;;;;;8277727;28;20089;-75
2020/12/05 12:41:25;;;;;;;18.13;11.05;;;4.20;99.90;;;;;;8276270;28;20033;-75
2020/12/05 12:45:30;;;;;;;16.45;10.38;;;4.10;99.90;;;;;;8287706;28;20517;-75
2020/12/05 12:49:36;;;;;;;15.65;10.35;;;4.10;99.90;;;;;;8294105;28;20037;-75
2020/12/05 12:53:37;;;;;;;14.32;9.98;;;4.20;99.90;;;;;;8293003;28;20172;-75
2020/12/05 12:57:38;;;;;;;14.43;9.40;;;4.10;99.90;;;;;;8293712;28;20038;-76
2020/12/05 13:01:38;;;;;;;10.77;7.60;;;4.10;99.90;;;;;;8296259;28;20041;-74
2020/12/05 13:05:39;;;;;;;14.40;9.48;;;4.10;99.90;;;;;;8292803;28;20030;-75
2020/12/05 13:09:40;;;;;;;15.77;10.07;;;3.50;99.90;;;;;;8288969;28;20038;-75
2020/12/05 13:13:44;;;;;;;13.55;8.80;;;3.30;99.90;;;;;;8278914;28;20034;-76
2020/12/05 13:17:44;;;;;;;12.98;8.45;;;3.50;99.90;;;;;;8269957;28;20029;-76
2020/12/05 13:21:45;;;;;;;16.13;9.70;;;3.60;99.90;;;;;;8283692;28;20076;-75
2020/12/05 13:25:45;;;;;;;14.65;8.80;;;3.60;99.90;;;;;;8268028;28;20049;-75
2020/12/05 13:29:46;;;;;;;15.07;9.40;;;3.60;99.90;;;;;;8279756;28;20567;-75
2020/12/05 13:33:47;;;;;;;13.20;8.82;;;3.60;99.90;;;;;;8287891;28;20037;-77
2020/12/05 13:37:48;;;;;;;13.52;9.40;;;3.60;99.90;;;;;;8283167;28;20121;-75
2020/12/05 13:41:55;;;;;;;15.07;9.45;;;3.50;99.90;;;;;;8267970;28;20038;-75
2020/12/05 13:46:03;;;;;;;14.45;9.77;;;3.50;99.90;;;;;;8274087;28;20514;-76
2020/12/05 13:50:04;;;;;;;14.35;9.68;;;3.50;99.90;;;;;;8284931;28;20030;-73
2020/12/05 13:54:05;;;;;;;16.85;10.02;;;3.50;99.90;;;;;;8283541;28;20048;-73
2020/12/05 13:58:06;;;;;;;15.00;9.68;;;3.40;99.90;;;;;;8290683;28;20030;-73
2020/12/05 14:02:08;;;;;;;16.98;11.05;;;3.30;99.90;;;;;;8294554;28;20026;-74
2020/12/05 14:06:10;;;;;;;17.10;10.75;;;3.30;99.90;;;;;;8282339;28;20057;-74
2020/12/05 14:10:10;;;;;;;19.90;12.45;;;3.30;99.90;;;;;;8295659;28;20035;-74
2020/12/05 14:14:11;;;;;;;17.42;12.00;;;3.20;99.90;;;;;;8283567;28;20034;-74
2020/12/05 14:18:12;;;;;;;16.95;11.25;;;3.10;99.90;;;;;;8263431;28;20030;-75
2020/12/05 14:22:12;;;;;;;19.08;11.45;;;3.10;99.90;;;;;;8264461;28;20448;-75
2020/12/05 14:26:13;;;;;;;17.38;11.07;;;3.00;99.90;;;;;;8280632;28;20516;-74
2020/12/05 14:30:13;;;;;;;20.33;13.27;;;3.00;99.90;;;;;;8296212;28;20036;-74
2020/12/05 14:34:14;;;;;;;22.77;14.13;;;3.00;99.90;;;;;;8284296;28;20113;-74
2020/12/05 14:38:14;;;;;;;26.58;14.55;;;3.10;99.90;;;;;;8295166;28;20018;-73
2020/12/05 14:42:15;;;;;;;18.65;10.80;;;3.10;99.90;;;;;;8296008;28;20549;-74
2020/12/05 14:46:16;;;;;;;17.58;9.80;;;3.00;99.90;;;;;;8287255;28;20084;-74
2020/12/05 14:50:17;;;;;;;68.07;40.20;;;2.90;99.90;;;;;;8294421;28;20026;-74
2020/12/05 14:54:17;;;;;;;26.17;18.77;;;2.80;99.90;;;;;;8284543;28;20555;-74
2020/12/05 14:58:19;;;;;;;21.05;14.57;;;2.80;99.90;;;;;;8289212;28;20034;-73
2020/12/05 15:02:19;;;;;;;14.32;9.07;;;2.80;99.90;;;;;;8267053;28;20109;-74
2020/12/05 15:06:21;;;;;;;19.38;13.13;;;2.80;99.90;;;;;;8273275;28;20021;-75
2020/12/05 15:10:24;;;;;;;20.08;12.02;;;2.70;99.90;;;;;;8270223;28;20022;-74
2020/12/05 15:14:25;;;;;;;19.20;11.77;;;2.80;99.90;;;;;;8286442;28;20614;-74
2020/12/05 15:18:25;;;;;;;17.85;11.18;;;2.60;99.90;;;;;;8289785;28;20030;-75
2020/12/05 15:22:26;;;;;;;16.55;11.38;;;2.70;99.90;;;;;;8287988;28;20442;-75
2020/12/05 15:26:26;;;;;;;16.23;9.30;;;2.70;99.90;;;;;;8291323;28;20056;-75
2020/12/05 15:30:27;;;;;;;16.58;9.95;;;2.60;99.90;;;;;;8286760;28;20018;-74
2020/12/05 15:34:30;;;;;;;18.02;10.65;;;2.80;99.90;;;;;;8301827;28;20026;-74
2020/12/05 15:38:35;;;;;;;16.40;10.77;;;2.60;99.90;;;;;;8284399;28;20431;-75
2020/12/05 15:42:36;;;;;;;17.58;10.23;;;2.60;99.90;;;;;;8286476;28;20149;-75
2020/12/05 15:46:36;;;;;;;17.58;10.45;;;2.70;99.90;;;;;;8276129;28;20487;-74
2020/12/05 15:50:37;;;;;;;16.67;9.40;;;2.90;99.90;;;;;;8267000;28;20088;-74
2020/12/05 15:54:37;;;;;;;15.07;9.65;;;3.00;99.90;;;;;;8264561;28;20034;-74
2020/12/05 15:58:38;;;;;;;15.60;9.43;;;2.90;99.90;;;;;;8270560;28;20033;-75
2020/12/05 16:02:38;;;;;;;14.88;9.30;;;2.70;99.90;;;;;;8287276;28;20032;-75
2020/12/05 16:06:39;;;;;;;15.65;9.45;;;2.60;99.90;;;;;;8292374;28;20468;-74
2020/12/05 16:10:40;;;;;;;15.23;9.75;;;2.60;99.90;;;;;;8290106;28;20111;-74
2020/12/05 16:14:42;;;;;;;17.40;11.05;;;2.60;99.90;;;;;;8280256;28;20031;-75
2020/12/05 16:18:43;;;;;;;19.42;10.77;;;2.60;99.90;;;;;;8272569;28;20038;-74
2020/12/05 16:22:43;;;;;;;16.17;9.38;;;2.60;99.90;;;;;;8284561;28;20057;-74
2020/12/05 16:26:47;;;;;;;15.40;9.38;;;2.80;99.90;;;;;;8302790;28;20061;-74
2020/12/05 16:30:50;;;;;;;17.75;10.95;;;2.80;99.90;;;;;;8313546;28;20431;-74
2020/12/05 16:34:51;;;;;;;17.50;10.13;;;3.10;99.90;;;;;;8292688;28;20032;-73
2020/12/05 16:38:52;;;;;;;18.05;10.57;;;3.00;99.90;;;;;;8288190;28;20034;-72
2020/12/05 16:42:53;;;;;;;22.02;12.82;;;2.80;99.90;;;;;;8277781;28;20057;-73
2020/12/05 16:46:53;;;;;;;19.85;12.02;;;2.50;99.90;;;;;;8277649;28;20037;-73
2020/12/05 16:50:54;;;;;;;21.85;12.45;;;2.40;99.90;;;;;;8293614;28;20065;-74
2020/12/05 16:54:55;;;;;;;23.50;13.57;;;2.40;99.90;;;;;;8290359;28;20022;-73
2020/12/05 16:58:55;;;;;;;22.73;13.05;;;2.30;99.90;;;;;;8296719;28;20092;-74
2020/12/05 17:02:56;;;;;;;23.55;14.15;;;2.20;99.90;;;;;;8278747;28;20112;-74
2020/12/05 17:06:56;;;;;;;21.38;13.00;;;2.00;99.90;;;;;;8272679;28;20045;-74
2020/12/05 17:10:57;;;;;;;25.08;13.50;;;2.00;99.90;;;;;;8265216;28;20109;-74
2020/12/05 17:14:59;;;;;;;24.08;14.15;;;2.00;99.90;;;;;;8264068;28;20046;-75
2020/12/05 17:19:00;;;;;;;27.42;16.08;;;2.20;99.90;;;;;;8265339;28;20042;-75
2020/12/05 17:23:01;;;;;;;30.00;17.13;;;2.10;99.90;;;;;;8275388;28;20120;-75
2020/12/05 17:27:01;;;;;;;31.13;20.45;;;2.20;99.90;;;;;;8292793;28;20026;-72
2020/12/05 17:31:02;;;;;;;31.10;20.02;;;2.20;99.90;;;;;;8278896;28;20040;-72
2020/12/05 17:35:03;;;;;;;27.60;15.75;;;2.20;99.90;;;;;;8276419;28;20022;-72
2020/12/05 17:39:04;;;;;;;26.15;15.27;;;2.30;99.90;;;;;;8266298;28;20109;-72
2020/12/05 17:43:05;;;;;;;24.00;14.30;;;2.20;99.90;;;;;;8285229;28;20029;-72
2020/12/05 17:47:05;;;;;;;21.77;12.85;;;2.40;99.90;;;;;;8279368;28;20156;-72
2020/12/05 17:51:06;;;;;;;21.15;12.63;;;2.40;99.90;;;;;;8292635;28;20033;-72
2020/12/05 17:55:07;;;;;;;28.38;14.68;;;2.10;99.90;;;;;;8277943;28;20026;-72
2020/12/05 17:59:08;;;;;;;22.40;13.43;;;2.00;99.90;;;;;;8295721;28;20288;-71
2020/12/05 18:03:09;;;;;;;22.08;13.65;;;2.10;99.90;;;;;;8283912;28;20037;-72
2020/12/05 18:07:09;;;;;;;25.83;14.73;;;1.90;99.90;;;;;;8288859;28;20026;-72
2020/12/05 18:11:13;;;;;;;25.13;14.90;;;1.90;99.90;;;;;;8283889;28;20052;-74
2020/12/05 18:15:14;;;;;;;24.48;14.00;;;2.00;99.90;;;;;;8287723;28;20373;-72
2020/12/05 18:19:15;;;;;;;25.85;15.13;;;2.40;99.90;;;;;;8285621;28;20026;-72
2020/12/05 18:23:18;;;;;;;23.95;14.70;;;2.20;99.90;;;;;;8283155;28;20507;-71
2020/12/05 18:27:19;;;;;;;30.52;16.55;;;2.10;99.90;;;;;;8281892;28;20030;-71
2020/12/05 18:31:28;;;;;;;26.10;16.02;;;2.20;99.90;;;;;;8286565;28;20045;-73
2020/12/05 18:35:28;;;;;;;29.35;16.10;;;2.20;99.90;;;;;;8283319;28;20022;-74
2020/12/05 18:39:29;;;;;;;28.02;16.25;;;2.20;99.90;;;;;;8283978;28;20099;-74
2020/12/05 18:43:29;;;;;;;32.10;19.00;;;2.10;99.90;;;;;;8289720;28;20026;-74
2020/12/05 18:47:30;;;;;;;30.20;15.88;;;2.20;99.90;;;;;;8279379;28;20104;-74
2020/12/05 18:51:32;;;;;;;25.50;14.75;;;2.20;99.90;;;;;;8276452;28;20041;-74
2020/12/05 18:55:32;;;;;;;17.92;10.13;;;2.10;99.90;;;;;;8278623;28;20474;-73
2020/12/05 18:59:33;;;;;;;20.30;12.18;;;2.20;99.90;;;;;;8281124;28;20033;-73
2020/12/05 19:03:34;;;;;;;16.90;8.93;;;2.10;99.90;;;;;;8283408;28;20398;-74
2020/12/05 19:07:34;;;;;;;23.95;13.63;;;1.90;99.90;;;;;;8284573;28;20067;-73
2020/12/05 19:11:35;;;;;;;23.80;14.15;;;1.80;99.90;;;;;;8284868;28;20080;-73
2020/12/05 19:15:36;;;;;;;17.25;9.00;;;1.70;99.90;;;;;;8286679;28;20092;-74
2020/12/05 19:19:36;;;;;;;20.33;10.75;;;1.70;99.90;;;;;;8272316;28;20036;-73
2020/12/05 19:23:37;;;;;;;33.80;24.52;;;1.80;99.90;;;;;;8282652;28;20040;-73
2020/12/05 19:27:38;;;;;;;26.25;16.45;;;1.80;99.90;;;;;;8284949;28;20057;-73
2020/12/05 19:31:39;;;;;;;26.38;15.27;;;1.80;99.90;;;;;;8286564;28;20525;-73
2020/12/05 19:35:40;;;;;;;23.65;13.38;;;2.00;99.90;;;;;;8273811;28;20025;-71
2020/12/05 19:39:41;;;;;;;23.30;13.43;;;2.10;99.90;;;;;;8279793;28;20022;-71
2020/12/05 19:43:42;;;;;;;24.80;14.18;;;2.20;99.90;;;;;;8287623;28;20255;-70
2020/12/05 19:47:46;;;;;;;23.52;13.88;;;2.00;99.90;;;;;;8293411;28;20022;-76
2020/12/05 19:51:46;;;;;;;21.23;12.27;;;2.00;99.90;;;;;;8293529;28;20415;-75
2020/12/05 19:55:49;;;;;;;24.95;14.00;;;1.90;99.90;;;;;;8294720;28;20079;-75
2020/12/05 19:59:55;;;;;;;27.33;16.25;;;1.90;99.90;;;;;;8275479;28;20030;-74
2020/12/05 20:03:56;;;;;;;27.33;15.55;;;1.90;99.90;;;;;;8285554;28;20045;-70
2020/12/05 20:07:56;;;;;;;27.33;15.25;;;1.80;99.90;;;;;;8274863;28;20053;-72
2020/12/05 20:11:57;;;;;;;29.77;18.27;;;2.10;99.90;;;;;;8271246;28;20026;-71
2020/12/05 20:15:57;;;;;;;33.72;18.20;;;2.10;99.90;;;;;;8260929;28;20030;-71
2020/12/05 20:19:58;;;;;;;28.80;15.85;;;2.00;99.90;;;;;;8269294;28;20049;-71
2020/12/05 20:23:59;;;;;;;24.48;15.20;;;2.00;99.90;;;;;;8268300;28;20045;-71
2020/12/05 20:28:00;;;;;;;27.17;15.85;;;2.00;99.90;;;;;;8281729;28;20141;-71
2020/12/05 20:32:00;;;;;;;27.33;16.17;;;2.10;99.90;;;;;;8275746;28;20034;-71
2020/12/05 20:36:01;;;;;;;28.58;15.88;;;2.10;99.90;;;;;;8288787;28;20033;-72
2020/12/05 20:40:02;;;;;;;29.63;17.30;;;2.20;99.90;;;;;;8289413;28;20014;-71
2020/12/05 20:44:03;;;;;;;31.92;17.95;;;2.10;99.90;;;;;;8289750;28;20025;-71
2020/12/05 20:48:04;;;;;;;39.42;21.35;;;2.20;99.90;;;;;;8288564;28;20459;-71
2020/12/05 20:52:08;;;;;;;34.13;19.30;;;2.30;99.90;;;;;;8287307;28;20030;-70
2020/12/05 20:56:08;;;;;;;35.15;20.23;;;2.40;99.90;;;;;;8288740;28;20148;-71